Gaines, MI (48436)

4:18 PM EST on November 27, 2014 (GMT -0500)
Vernon Twp - south | Change Station
CLOSE
Current Station
Personal Weather Station
Location: Durand, MI
Elevation: 820 ft
Nearby Weather Stations

Elev 820 ft 42.88 °N, 83.99 °W | Updated 3 minutes ago

Overcast
Overcast
29.3 °F
Feels Like 23 °F
N
6.0
Wind Variable Wind from North
Gusts 10.0 mph

Today
High -- | Low -- °F
--% Chance of Precip.
Yesterday
High -- | Low -- °F
Precip. -- in
7:42 AM 5:03 PM
Waxing Crescent, 33% visible
Pressure 30.23 in
Visibility 10.0 miles
Clouds Overcast 2400 ft
Windchill 23 °F
Dew Point 8 °F
Humidity 61%
Rainfall 0.00 in
Snow Depth Not available.
UV 0 out of 12
Pollen .10 out of 12
Air Quality Not available.
Flu Activity Not available.
METAR KFNT 272053Z 33015KT 10SM OVC024 M01/M07 A3019 RMK AO2 SNE18 SLP235 P0000 60000 T10111067 53016

More Conditions Fewer Conditions

Pressure 30.23 in
Visibility 10.0 miles
Clouds Overcast 2400 ft
Windchill 23 °F
Dew Point 8 °F
Humidity 61%
Rainfall 0.00 in
Snow Depth Not available.
UV 0 out of 12
Pollen .10 out of 12
Air Quality Not available.
Flu Activity Not available.
METAR KFNT 272053Z 33015KT 10SM OVC024 M01/M07 A3019 RMK AO2 SNE18 SLP235 P0000 60000 T10111067 53016

More Conditions Fewer Conditions

10-Day Weather Forecast

Almanac

Astronomy

Nov. 27, 2014 Rise Set
Actual Time
Civil Twilight
Nautical Twilight
Astronomical Twilight
Moon
Length of Visible Light
Length of Day
Tomorrow will be .
, % of the Moon is Illuminated

Today's Extremes

State Highs State Lows

Community

WunderPhotos

Upload Photos

1,774,106 photos uploaded!

WunderBlogs® & News

Nearby

Air Quality

  Air Quality AQ Index Pollutant
Not available.

Snow Depth

Station Depth Elevation

Earthquake Activity

City Distance Mag. Time & Date
Minimum magnitude displayed is 2.5.

Coastal Water Temperatures

Place Temperature

Nearby Weather Stations